createdAt,value
2024-04-25T00:00:26.119Z,5.17
2024-04-25T00:02:54.362Z,4.50
2024-04-25T00:05:22.072Z,4.00
2024-04-25T00:07:49.547Z,4.60
2024-04-25T00:10:16.531Z,4.20
2024-04-25T00:12:43.475Z,4.53
2024-04-25T00:15:11.149Z,4.20
2024-04-25T00:17:38.511Z,4.53
2024-04-25T00:20:05.895Z,5.00
2024-04-25T00:22:33.048Z,4.10
2024-04-25T00:24:59.994Z,4.70
2024-04-25T00:27:27.695Z,4.97
2024-04-25T00:29:55.794Z,4.80
2024-04-25T00:32:22.726Z,4.93
2024-04-25T00:34:49.698Z,5.53
2024-04-25T00:37:17.179Z,4.77
2024-04-25T00:39:44.396Z,5.50
2024-04-25T00:42:19.483Z,4.90
2024-04-25T00:44:46.539Z,4.87
2024-04-25T00:47:16.238Z,5.27
2024-04-25T00:49:44.001Z,5.37
2024-04-25T00:52:12.136Z,5.70
2024-04-25T00:54:39.188Z,5.40
2024-04-25T00:57:10.492Z,5.40
2024-04-25T00:59:40.891Z,5.63
2024-04-25T01:02:10.399Z,5.80
2024-04-25T01:04:37.977Z,5.03
2024-04-25T01:07:05.087Z,4.90
2024-04-25T01:09:32.090Z,5.43
2024-04-25T01:11:59.870Z,5.80
2024-04-25T01:14:27.009Z,5.30
2024-04-25T01:16:54.021Z,5.33
2024-04-25T01:19:22.171Z,6.10
2024-04-25T01:21:49.820Z,5.30
2024-04-25T01:24:30.801Z,5.87
2024-04-25T01:26:59.855Z,4.93
2024-04-25T01:29:27.822Z,5.90
2024-04-25T01:31:55.818Z,5.53
2024-04-25T01:34:24.884Z,5.47
2024-04-25T01:36:53.539Z,5.43
2024-04-25T01:39:21.002Z,5.63
2024-04-25T01:41:47.961Z,6.23
2024-04-25T01:44:15.021Z,6.07
2024-04-25T01:46:43.230Z,5.53
2024-04-25T01:49:10.416Z,5.20
2024-04-25T01:51:37.378Z,5.83
2024-04-25T01:54:04.387Z,5.23
2024-04-25T01:56:34.597Z,5.73
2024-04-25T01:59:03.905Z,5.60
2024-04-25T02:01:31.046Z,5.03
2024-04-25T02:03:58.057Z,5.37
2024-04-25T02:06:25.082Z,5.60
2024-04-25T02:08:52.140Z,5.93
2024-04-25T02:11:19.300Z,5.40
2024-04-25T02:13:46.356Z,5.67
2024-04-25T02:16:13.479Z,5.80
2024-04-25T02:18:40.612Z,5.40
2024-04-25T02:21:26.149Z,6.20
2024-04-25T02:24:12.576Z,5.77
2024-04-25T02:26:41.766Z,5.20
2024-04-25T02:29:08.777Z,5.63
2024-04-25T02:31:41.101Z,5.83
2024-04-25T02:34:08.618Z,5.60
2024-04-25T02:36:38.014Z,5.80
2024-04-25T02:39:05.331Z,5.87
2024-04-25T02:41:32.388Z,5.80
2024-04-25T02:43:59.333Z,5.30
2024-04-25T02:46:26.293Z,6.90
2024-04-25T02:48:53.412Z,6.70
2024-04-25T02:51:20.371Z,7.60
2024-04-25T02:53:47.316Z,8.10
2024-04-25T02:56:14.299Z,8.17
2024-04-25T02:58:41.497Z,8.57
2024-04-25T03:01:08.640Z,8.37
2024-04-25T03:03:35.724Z,8.20
2024-04-25T03:06:02.731Z,7.53
2024-04-25T03:08:29.724Z,7.43
2024-04-25T03:11:01.632Z,8.37
2024-04-25T03:13:28.701Z,7.80
2024-04-25T03:15:55.626Z,7.97
2024-04-25T03:18:22.754Z,8.43
2024-04-25T03:20:52.113Z,8.53
2024-04-25T03:23:19.097Z,9.23
2024-04-25T03:25:46.104Z,8.50
2024-04-25T03:28:13.046Z,8.77
2024-04-25T03:30:40.086Z,9.60
2024-04-25T03:33:08.023Z,8.87
2024-04-25T03:35:35.224Z,11.30
2024-04-25T03:38:05.033Z,12.37
2024-04-25T03:40:36.253Z,13.07
2024-04-25T03:43:03.238Z,12.20
2024-04-25T03:45:30.147Z,12.50
2024-04-25T03:47:57.242Z,13.17
2024-04-25T03:50:24.454Z,13.30
2024-04-25T03:52:51.448Z,12.97
2024-04-25T03:55:19.034Z,14.33
2024-04-25T03:57:45.993Z,15.37
2024-04-25T04:00:13.180Z,14.17
2024-04-25T04:02:40.242Z,14.90
2024-04-25T04:05:07.526Z,15.83
2024-04-25T04:07:34.524Z,17.33
2024-04-25T04:10:01.448Z,15.07
2024-04-25T04:12:28.743Z,15.10
2024-04-25T04:14:55.681Z,15.60
2024-04-25T04:17:22.719Z,14.27
2024-04-25T04:19:49.741Z,16.97
2024-04-25T04:22:16.713Z,15.07
2024-04-25T04:24:44.087Z,15.43
2024-04-25T04:27:11.078Z,14.33
2024-04-25T04:29:38.841Z,13.60
2024-04-25T04:32:05.955Z,13.80
2024-04-25T04:34:32.956Z,14.00
2024-04-25T04:36:59.875Z,14.47
2024-04-25T04:39:26.856Z,13.30
2024-04-25T04:41:53.790Z,13.20
2024-04-25T04:44:20.775Z,13.60
2024-04-25T04:46:47.740Z,13.00
2024-04-25T04:49:14.741Z,13.40
2024-04-25T04:51:42.299Z,13.80
2024-04-25T04:54:09.563Z,13.37
2024-04-25T04:56:36.642Z,12.83
2024-04-25T04:59:03.809Z,13.17
2024-04-25T05:01:30.770Z,13.73
2024-04-25T05:03:57.880Z,12.77
2024-04-25T05:06:26.212Z,13.13
2024-04-25T05:08:53.242Z,13.23
2024-04-25T05:11:20.424Z,11.93
2024-04-25T05:13:47.420Z,11.93
2024-04-25T05:16:14.474Z,11.63
2024-04-25T05:18:41.479Z,11.03
2024-04-25T05:21:08.508Z,11.73
2024-04-25T05:23:35.520Z,10.00
2024-04-25T05:26:02.665Z,11.17
2024-04-25T05:28:29.744Z,10.10
2024-04-25T05:30:56.683Z,10.00
2024-04-25T05:33:23.714Z,9.83
2024-04-25T05:35:51.940Z,9.90
2024-04-25T05:38:19.162Z,9.80
2024-04-25T05:40:46.138Z,8.77
2024-04-25T05:43:14.299Z,10.07
2024-04-25T05:45:41.683Z,8.17
2024-04-25T05:48:08.865Z,8.43
2024-04-25T05:50:35.898Z,8.90
2024-04-25T05:53:05.102Z,9.23
2024-04-25T05:55:32.520Z,9.60
2024-04-25T05:57:59.538Z,8.90
2024-04-25T06:00:26.482Z,8.30
2024-04-25T06:02:53.549Z,8.80
2024-04-25T06:05:20.591Z,8.70
2024-04-25T06:07:47.629Z,8.53
2024-04-25T06:10:14.782Z,8.30
2024-04-25T06:12:44.027Z,8.67
2024-04-25T06:15:11.300Z,9.77
2024-04-25T06:17:42.059Z,8.80
2024-04-25T06:20:10.182Z,8.87
2024-04-25T06:22:37.292Z,8.63
2024-04-25T06:25:05.163Z,10.03
2024-04-25T06:27:32.574Z,9.20
2024-04-25T06:29:59.553Z,8.67
2024-04-25T06:32:26.626Z,9.93
2024-04-25T06:34:54.343Z,9.73
2024-04-25T06:37:21.589Z,10.17
2024-04-25T06:39:48.583Z,10.73
2024-04-25T06:42:15.951Z,10.10
2024-04-25T06:44:49.965Z,10.17
2024-04-25T06:47:20.549Z,10.00
2024-04-25T06:49:47.679Z,9.87
2024-04-25T06:52:14.683Z,9.60
2024-04-25T06:54:41.631Z,9.43
2024-04-25T06:57:09.110Z,9.30
2024-04-25T06:59:36.328Z,8.70
2024-04-25T07:02:05.738Z,10.23
2024-04-25T07:04:32.838Z,9.30
2024-04-25T07:06:59.798Z,9.47
2024-04-25T07:09:26.852Z,9.40
2024-04-25T07:11:54.606Z,8.60
2024-04-25T07:14:23.155Z,9.57
2024-04-25T07:16:51.219Z,9.50
2024-04-25T07:19:19.213Z,9.00
2024-04-25T07:21:46.312Z,9.13
2024-04-25T07:24:13.500Z,8.57
2024-04-25T07:26:40.499Z,7.30
2024-04-25T07:29:07.484Z,8.63
2024-04-25T07:31:34.441Z,9.30
2024-04-25T07:34:02.219Z,9.10
2024-04-25T07:36:29.280Z,8.40
2024-04-25T07:38:56.489Z,7.10
2024-04-25T07:41:23.686Z,8.27
2024-04-25T07:43:50.605Z,7.50
2024-04-25T07:46:18.048Z,7.70
2024-04-25T07:48:47.385Z,7.60
2024-04-25T07:51:14.373Z,8.40
2024-04-25T07:53:41.419Z,8.67
2024-04-25T07:56:08.815Z,7.27
2024-04-25T07:58:35.872Z,7.80
2024-04-25T08:01:03.451Z,6.87
2024-04-25T08:03:30.616Z,7.50
2024-04-25T08:05:57.795Z,6.70
2024-04-25T08:08:26.094Z,6.23
2024-04-25T08:10:53.746Z,5.70
2024-04-25T08:13:20.811Z,5.43
2024-04-25T08:15:47.922Z,5.03
2024-04-25T08:18:15.037Z,5.43
2024-04-25T08:20:42.137Z,6.00
2024-04-25T08:23:09.404Z,6.27
2024-04-25T08:25:36.383Z,5.13
2024-04-25T08:28:03.614Z,5.40
2024-04-25T08:30:30.641Z,4.70
2024-04-25T08:32:57.967Z,4.30
2024-04-25T08:35:25.084Z,4.73
2024-04-25T08:37:54.305Z,4.70
2024-04-25T08:40:21.263Z,4.80
2024-04-25T08:42:51.744Z,4.97
2024-04-25T08:45:19.781Z,4.30
2024-04-25T08:47:49.620Z,4.20
2024-04-25T08:50:19.671Z,4.10
2024-04-25T08:52:48.368Z,4.43
2024-04-25T08:55:17.501Z,4.20
2024-04-25T08:57:45.345Z,4.20
2024-04-25T09:00:12.688Z,4.23
2024-04-25T09:02:40.514Z,4.67
2024-04-25T09:05:13.946Z,4.13
2024-04-25T09:07:47.584Z,3.67
2024-04-25T09:10:15.270Z,3.67
2024-04-25T09:12:42.742Z,4.23
2024-04-25T09:15:09.919Z,3.37
2024-04-25T09:17:39.053Z,3.70
2024-04-25T09:20:08.991Z,3.90
2024-04-25T09:22:38.735Z,3.60
2024-04-25T09:25:07.584Z,3.97
2024-04-25T09:27:34.616Z,3.73
2024-04-25T09:30:02.402Z,3.43
2024-04-25T09:32:31.361Z,3.77
2024-04-25T09:35:02.461Z,3.80
2024-04-25T09:37:32.955Z,3.20
2024-04-25T09:40:05.374Z,3.13
2024-04-25T09:42:35.660Z,3.07
2024-04-25T09:45:07.667Z,2.60
2024-04-25T09:48:10.196Z,2.90
2024-04-25T09:50:54.836Z,2.37
2024-04-25T09:53:38.081Z,2.20
2024-04-25T09:56:07.473Z,2.67
2024-04-25T09:58:51.252Z,2.23
2024-04-25T10:01:19.432Z,2.10
2024-04-25T10:03:47.607Z,1.90
2024-04-25T10:06:15.314Z,2.20
2024-04-25T10:08:43.080Z,1.90
2024-04-25T10:11:14.951Z,1.90
2024-04-25T10:13:50.022Z,1.77
2024-04-25T10:16:20.838Z,2.20
2024-04-25T10:18:51.658Z,2.17
2024-04-25T10:21:19.062Z,2.10
2024-04-25T10:23:48.297Z,2.10
2024-04-25T10:26:18.975Z,2.20
2024-04-25T10:29:03.361Z,1.80
2024-04-25T10:31:39.660Z,2.27
2024-04-25T10:34:08.974Z,2.67
2024-04-25T10:36:37.193Z,2.03
2024-04-25T10:39:08.556Z,3.30
2024-04-25T10:41:37.624Z,2.03
2024-04-25T10:44:08.792Z,2.10
2024-04-25T10:46:37.057Z,2.00
2024-04-25T10:49:08.950Z,1.83
2024-04-25T10:51:38.780Z,2.13
2024-04-25T10:54:06.055Z,2.00
2024-04-25T10:56:33.038Z,2.00
2024-04-25T10:58:59.990Z,1.70
2024-04-25T11:01:29.115Z,2.20
2024-04-25T11:04:00.811Z,2.10
2024-04-25T11:06:32.382Z,2.23
2024-04-25T11:09:01.008Z,2.40
2024-04-25T11:11:29.144Z,1.97
2024-04-25T11:13:56.404Z,2.07
2024-04-25T11:16:23.646Z,2.20
2024-04-25T11:18:58.004Z,2.30
2024-04-25T11:21:28.770Z,2.23
2024-04-25T11:23:57.821Z,2.00
2024-04-25T11:26:25.463Z,2.43
2024-04-25T11:28:52.626Z,2.20
2024-04-25T11:31:19.623Z,2.03
2024-04-25T11:33:46.695Z,2.43
2024-04-25T11:36:27.687Z,2.10
2024-04-25T11:38:56.866Z,2.30
2024-04-25T11:41:24.361Z,2.90
2024-04-25T11:43:51.479Z,2.67
2024-04-25T11:46:19.741Z,2.43
2024-04-25T11:48:51.639Z,2.80
2024-04-25T11:51:18.810Z,2.30
2024-04-25T11:53:45.944Z,2.63
2024-04-25T11:56:13.357Z,2.70
2024-04-25T11:58:40.397Z,3.10
2024-04-25T12:01:07.431Z,2.57
2024-04-25T12:03:34.514Z,2.23
2024-04-25T12:06:02.704Z,2.57
2024-04-25T12:08:30.990Z,2.40
2024-04-25T12:10:57.985Z,2.50
2024-04-25T12:13:24.993Z,2.00
2024-04-25T12:15:52.055Z,2.50
2024-04-25T12:18:21.739Z,2.10
2024-04-25T12:20:49.056Z,2.73
2024-04-25T12:23:16.347Z,2.20
2024-04-25T12:25:43.535Z,2.30
2024-04-25T12:28:10.567Z,2.30
2024-04-25T12:30:38.721Z,2.20
2024-04-25T12:33:06.053Z,2.47
2024-04-25T12:35:33.321Z,2.73
2024-04-25T12:38:00.598Z,3.40
2024-04-25T12:40:27.654Z,2.33
2024-04-25T12:42:54.617Z,2.13
2024-04-25T12:45:25.256Z,2.37
2024-04-25T12:47:52.410Z,2.20
2024-04-25T12:50:21.705Z,2.93
2024-04-25T12:52:48.962Z,2.63
2024-04-25T12:55:16.284Z,2.80
2024-04-25T12:57:43.239Z,3.10
2024-04-25T13:00:12.935Z,2.57
2024-04-25T13:02:39.940Z,2.93
2024-04-25T13:05:07.119Z,2.50
2024-04-25T13:07:34.063Z,3.10
2024-04-25T13:10:00.991Z,2.77
2024-04-25T13:12:28.021Z,2.97
2024-04-25T13:14:55.047Z,2.57
2024-04-25T13:17:23.270Z,2.63
2024-04-25T13:19:50.487Z,2.43
2024-04-25T13:22:17.476Z,5.30
2024-04-25T13:24:44.567Z,2.63
2024-04-25T13:27:11.565Z,2.33
2024-04-25T13:29:38.702Z,2.43
2024-04-25T13:32:07.971Z,2.37
2024-04-25T13:34:35.078Z,2.23
2024-04-25T13:37:02.247Z,2.73
2024-04-25T13:39:29.222Z,2.40
2024-04-25T13:41:56.209Z,2.60
2024-04-25T13:44:23.198Z,2.83
2024-04-25T13:46:51.262Z,3.10
2024-04-25T13:49:21.686Z,2.50
2024-04-25T13:51:49.350Z,2.70
2024-04-25T13:54:16.291Z,2.90
2024-04-25T13:56:43.376Z,3.30
2024-04-25T13:59:10.446Z,3.23
2024-04-25T14:01:37.525Z,3.47
2024-04-25T14:04:04.805Z,3.60
2024-04-25T14:06:31.854Z,3.20
2024-04-25T14:08:58.833Z,3.80
2024-04-25T14:11:25.921Z,3.37
2024-04-25T14:13:54.573Z,3.20
2024-04-25T14:16:21.682Z,3.30
2024-04-25T14:18:48.789Z,3.23
2024-04-25T14:21:18.644Z,4.07
2024-04-25T14:23:46.066Z,3.53
2024-04-25T14:26:31.733Z,3.10
2024-04-25T14:28:58.671Z,3.63
2024-04-25T14:31:25.654Z,3.07
2024-04-25T14:33:52.891Z,3.30
2024-04-25T14:36:19.958Z,3.03
2024-04-25T14:38:47.146Z,3.33
2024-04-25T14:41:14.788Z,3.23
2024-04-25T14:43:43.051Z,3.53
2024-04-25T14:46:10.385Z,3.10
2024-04-25T14:48:37.397Z,3.93
2024-04-25T14:51:04.692Z,3.10
2024-04-25T14:53:32.943Z,3.27
2024-04-25T14:56:00.189Z,3.60
2024-04-25T14:58:27.740Z,3.00
2024-04-25T15:00:54.757Z,3.07
2024-04-25T15:03:21.768Z,3.13
2024-04-25T15:05:49.093Z,3.30
2024-04-25T15:08:16.906Z,4.17
2024-04-25T15:10:47.722Z,3.80
2024-04-25T15:13:21.757Z,4.23
2024-04-25T15:15:52.474Z,4.77
2024-04-25T15:18:19.851Z,4.50
2024-04-25T15:20:47.055Z,5.10
2024-04-25T15:23:15.139Z,4.77
2024-04-25T15:25:42.190Z,3.97
2024-04-25T15:28:11.146Z,3.93
2024-04-25T15:30:39.693Z,3.97
2024-04-25T15:33:06.782Z,3.53
2024-04-25T15:35:33.947Z,3.43
2024-04-25T15:38:01.037Z,3.40
2024-04-25T15:40:28.101Z,3.20
2024-04-25T15:42:55.135Z,3.20
2024-04-25T15:45:22.131Z,3.03
2024-04-25T15:47:49.431Z,3.30
2024-04-25T15:50:16.586Z,2.90
2024-04-25T15:52:43.648Z,2.80
2024-04-25T15:55:10.559Z,4.00
2024-04-25T15:57:37.529Z,3.10
2024-04-25T16:00:04.861Z,3.60
2024-04-25T16:02:33.011Z,3.00
2024-04-25T16:05:00.138Z,3.50
2024-04-25T16:07:27.085Z,4.10
2024-04-25T16:09:54.036Z,3.00
2024-04-25T16:12:21.227Z,2.80
2024-04-25T16:14:48.438Z,3.13
2024-04-25T16:17:15.648Z,2.73
2024-04-25T16:19:43.052Z,3.00
2024-04-25T16:22:10.455Z,3.00
2024-04-25T16:24:37.456Z,2.90
2024-04-25T16:27:07.265Z,2.90
2024-04-25T16:29:35.047Z,3.00
2024-04-25T16:32:02.101Z,3.13
2024-04-25T16:34:29.366Z,3.27
2024-04-25T16:36:56.388Z,2.73
2024-04-25T16:39:24.823Z,2.27
2024-04-25T16:41:51.891Z,2.63
2024-04-25T16:44:19.047Z,2.80
2024-04-25T16:46:45.994Z,2.37
2024-04-25T16:49:13.449Z,2.27
2024-04-25T16:51:40.419Z,1.87
2024-04-25T16:54:07.378Z,2.00
2024-04-25T16:56:36.359Z,2.20
2024-04-25T16:59:03.472Z,1.87
2024-04-25T17:01:30.861Z,2.10
2024-04-25T17:03:58.014Z,1.93
2024-04-25T17:06:25.097Z,2.60
2024-04-25T17:08:52.145Z,2.20
2024-04-25T17:11:22.743Z,2.40
2024-04-25T17:13:55.679Z,2.20
2024-04-25T17:16:22.726Z,2.80
2024-04-25T17:18:50.031Z,2.50
2024-04-25T17:21:17.830Z,2.30
2024-04-25T17:23:51.870Z,2.13
2024-04-25T17:26:18.975Z,2.40
2024-04-25T17:28:45.976Z,2.30
2024-04-25T17:31:12.964Z,2.80
2024-04-25T17:33:40.018Z,2.50
2024-04-25T17:36:07.255Z,2.70
2024-04-25T17:38:38.447Z,2.80
2024-04-25T17:41:05.653Z,2.67
2024-04-25T17:43:33.309Z,2.90
2024-04-25T17:46:00.644Z,2.80
2024-04-25T17:48:28.126Z,3.10
2024-04-25T17:50:55.210Z,3.00
2024-04-25T17:53:22.181Z,3.33
2024-04-25T17:55:49.193Z,3.80
2024-04-25T17:58:22.233Z,3.63
2024-04-25T18:00:49.839Z,3.10
2024-04-25T18:03:17.155Z,2.77
2024-04-25T18:05:44.168Z,2.90
2024-04-25T18:08:12.688Z,3.50
2024-04-25T18:10:43.574Z,3.20
2024-04-25T18:13:10.630Z,3.43
2024-04-25T18:15:37.623Z,3.83
2024-04-25T18:18:05.280Z,3.00
2024-04-25T18:20:32.475Z,3.40
2024-04-25T18:22:59.480Z,3.63
2024-04-25T18:25:26.449Z,3.43
2024-04-25T18:27:53.615Z,4.00
2024-04-25T18:30:20.672Z,2.80
2024-04-25T18:32:50.066Z,3.10
2024-04-25T18:35:18.093Z,2.83
2024-04-25T18:37:45.259Z,3.20
2024-04-25T18:40:12.285Z,3.03
2024-04-25T18:42:39.856Z,3.03
2024-04-25T18:45:07.494Z,3.00
2024-04-25T18:47:34.576Z,3.30
2024-04-25T18:50:02.527Z,3.30
2024-04-25T18:52:29.582Z,2.80
2024-04-25T18:54:56.645Z,3.10
2024-04-25T18:57:23.602Z,2.60
2024-04-25T18:59:51.027Z,3.30
2024-04-25T19:02:18.120Z,3.77
2024-04-25T19:04:45.437Z,3.70
2024-04-25T19:07:12.462Z,3.40
2024-04-25T19:09:39.522Z,3.10
2024-04-25T19:12:06.696Z,3.10
2024-04-25T19:14:33.728Z,2.90
2024-04-25T19:17:00.758Z,3.40
2024-04-25T19:19:27.753Z,3.07
2024-04-25T19:21:54.780Z,3.67
2024-04-25T19:24:22.076Z,3.37
2024-04-25T19:26:52.083Z,3.00
2024-04-25T19:29:20.167Z,3.20
2024-04-25T19:31:54.215Z,3.20
2024-04-25T19:34:24.041Z,3.37
2024-04-25T19:36:52.016Z,3.53
2024-04-25T19:39:19.053Z,3.90
2024-04-25T19:41:47.897Z,3.50
2024-04-25T19:44:17.667Z,3.67
2024-04-25T19:46:44.795Z,3.67
2024-04-25T19:49:11.970Z,3.30
2024-04-25T19:51:41.686Z,3.50
2024-04-25T19:54:08.739Z,3.40
2024-04-25T19:56:35.764Z,3.90
2024-04-25T19:59:02.795Z,4.10
2024-04-25T20:01:30.140Z,3.50
2024-04-25T20:03:57.162Z,3.50
2024-04-25T20:06:25.776Z,3.03
2024-04-25T20:08:53.548Z,3.93
2024-04-25T20:11:21.900Z,3.70
2024-04-25T20:13:49.069Z,3.20
2024-04-25T20:16:17.410Z,3.40
2024-04-25T20:19:03.600Z,3.20
2024-04-25T20:21:30.825Z,3.40
2024-04-25T20:23:58.598Z,3.27
2024-04-25T20:26:27.419Z,3.60
2024-04-25T20:28:54.345Z,3.20
2024-04-25T20:31:21.414Z,3.80
2024-04-25T20:33:48.456Z,3.30
2024-04-25T20:36:15.477Z,3.50
2024-04-25T20:38:43.408Z,3.60
2024-04-25T20:41:11.997Z,3.67
2024-04-25T20:43:41.718Z,3.70
2024-04-25T20:46:08.881Z,2.80
2024-04-25T20:48:36.225Z,3.43
2024-04-25T20:51:03.337Z,3.20
2024-04-25T20:53:30.377Z,3.00
2024-04-25T20:55:58.002Z,3.03
2024-04-25T20:58:28.452Z,2.90
2024-04-25T21:00:56.964Z,2.83
2024-04-25T21:03:24.102Z,3.47
2024-04-25T21:05:51.394Z,5.93
2024-04-25T21:08:18.383Z,3.63
2024-04-25T21:10:45.452Z,3.30
2024-04-25T21:13:12.700Z,2.73
2024-04-25T21:15:39.883Z,2.87
2024-04-25T21:18:07.018Z,2.87
2024-04-25T21:20:34.133Z,3.07
2024-04-25T21:23:01.148Z,2.87
2024-04-25T21:25:28.123Z,2.80
2024-04-25T21:27:55.094Z,3.83
2024-04-25T21:30:22.054Z,3.00
2024-04-25T21:32:49.258Z,3.33
2024-04-25T21:35:16.338Z,3.13
2024-04-25T21:37:43.286Z,2.97
2024-04-25T21:40:10.957Z,3.00
2024-04-25T21:42:38.259Z,2.90
2024-04-25T21:45:06.181Z,2.93
2024-04-25T21:47:33.284Z,3.07
2024-04-25T21:50:00.380Z,2.90
2024-04-25T21:52:27.323Z,3.30
2024-04-25T21:54:54.337Z,3.23
2024-04-25T21:57:21.318Z,2.80
2024-04-25T21:59:48.378Z,2.90
2024-04-25T22:02:15.349Z,2.90
2024-04-25T22:04:42.318Z,3.27
2024-04-25T22:07:09.396Z,3.27
2024-04-25T22:09:36.383Z,2.70
2024-04-25T22:12:03.555Z,3.10
2024-04-25T22:14:30.714Z,3.07
2024-04-25T22:16:57.700Z,3.50
2024-04-25T22:19:24.846Z,3.33
2024-04-25T22:21:51.914Z,3.23
2024-04-25T22:24:20.778Z,3.27
2024-04-25T22:26:48.716Z,3.17
2024-04-25T22:29:15.716Z,3.57
2024-04-25T22:31:42.788Z,3.50
2024-04-25T22:34:09.904Z,2.93
2024-04-25T22:36:36.856Z,3.20
2024-04-25T22:39:04.053Z,3.17
2024-04-25T22:41:31.106Z,3.30
2024-04-25T22:43:58.124Z,2.93
2024-04-25T22:46:25.068Z,3.33
2024-04-25T22:48:52.106Z,3.73
2024-04-25T22:51:19.159Z,2.77
2024-04-25T22:53:46.238Z,3.20
2024-04-25T22:56:13.322Z,3.00
2024-04-25T22:58:40.340Z,3.13
2024-04-25T23:01:07.353Z,3.00
2024-04-25T23:03:35.945Z,3.77
2024-04-25T23:06:03.135Z,2.97
2024-04-25T23:08:30.065Z,3.03
2024-04-25T23:10:57.061Z,3.20
2024-04-25T23:13:24.047Z,3.27
2024-04-25T23:15:51.220Z,3.23
2024-04-25T23:18:18.496Z,3.17
2024-04-25T23:20:45.602Z,3.13
2024-04-25T23:23:12.665Z,3.23
2024-04-25T23:25:39.707Z,3.10
2024-04-25T23:28:06.842Z,3.20
2024-04-25T23:30:33.766Z,3.40
2024-04-25T23:33:00.950Z,2.80
2024-04-25T23:35:28.135Z,3.60
2024-04-25T23:37:55.094Z,2.93
2024-04-25T23:40:22.097Z,3.00
2024-04-25T23:42:49.083Z,3.20
2024-04-25T23:45:16.071Z,3.80
2024-04-25T23:47:43.107Z,3.47
2024-04-25T23:50:10.324Z,3.17
2024-04-25T23:52:37.305Z,3.30
2024-04-25T23:55:04.455Z,2.60
2024-04-25T23:57:32.862Z,3.53
